createdAt,value
2022-09-23T00:02:39.182Z,101014.97
2022-09-23T00:07:42.443Z,101014.16
2022-09-23T00:12:45.419Z,101008.88
2022-09-23T00:17:49.813Z,101007.19
2022-09-23T00:22:53.457Z,101010.66
2022-09-23T00:27:56.536Z,101003.72
2022-09-23T00:33:01.051Z,100998.56
2022-09-23T00:38:04.036Z,100997.66
2022-09-23T00:43:07.090Z,101006.34
2022-09-23T00:48:15.465Z,101000.31
2022-09-23T00:53:22.640Z,101003.81
2022-09-23T00:58:28.025Z,101002.06
2022-09-23T01:03:32.759Z,100996.84
2022-09-23T01:08:35.732Z,100994.28
2022-09-23T01:13:44.509Z,100997.75
2022-09-23T01:18:50.938Z,100991.72
2022-09-23T01:24:13.551Z,100986.50
2022-09-23T01:29:31.054Z,100994.31
2022-09-23T01:34:37.684Z,100984.78
2022-09-23T01:39:44.573Z,100983.91
2022-09-23T01:44:52.417Z,100990.84
2022-09-23T01:49:58.980Z,100978.69
2022-09-23T01:55:05.775Z,100982.16
2022-09-23T02:00:11.594Z,100985.63
2022-09-23T02:05:18.712Z,100974.34
2022-09-23T02:10:25.208Z,100985.59
2022-09-23T02:15:33.850Z,100978.66
2022-09-23T02:20:39.801Z,100982.97
2022-09-23T02:25:45.958Z,100980.41
2022-09-23T02:30:51.961Z,100983.88
2022-09-23T02:35:59.187Z,100978.72
2022-09-23T02:41:05.676Z,100982.16
2022-09-23T02:46:08.737Z,100980.44
2022-09-23T02:51:13.878Z,100980.44
2022-09-23T02:56:17.374Z,100989.13
2022-09-23T03:01:32.692Z,100989.09
2022-09-23T03:06:43.200Z,100986.47
2022-09-23T03:11:49.596Z,100983.91
2022-09-23T03:16:58.316Z,100986.47
2022-09-23T03:22:05.559Z,100976.09
2022-09-23T03:27:13.903Z,100978.72
2022-09-23T03:32:18.164Z,100980.47
2022-09-23T03:37:26.322Z,100978.69
2022-09-23T03:42:31.095Z,100972.66
2022-09-23T03:47:34.124Z,100972.66
2022-09-23T03:52:39.944Z,100969.19
2022-09-23T03:57:43.036Z,100970.09
2022-09-23T04:02:46.068Z,100966.63
2022-09-23T04:07:51.167Z,100970.94
2022-09-23T04:12:54.060Z,100964.91
2022-09-23T04:17:57.018Z,100966.66
2022-09-23T04:23:01.323Z,100972.72
2022-09-23T04:28:04.299Z,100975.31
2022-09-23T04:33:07.263Z,100977.06
2022-09-23T04:38:11.818Z,100978.78
2022-09-23T04:43:15.896Z,100979.69
2022-09-23T04:48:19.093Z,100982.22
2022-09-23T04:53:23.763Z,100980.50
2022-09-23T04:58:26.745Z,100978.78
2022-09-23T05:03:30.268Z,100971.84
2022-09-23T05:08:34.973Z,100975.31
2022-09-23T05:13:37.909Z,100974.47
2022-09-23T05:18:42.862Z,100973.56
2022-09-23T05:23:50.206Z,100979.66
2022-09-23T05:28:53.882Z,100977.06
2022-09-23T05:33:58.332Z,100977.06
2022-09-23T05:39:02.752Z,100978.75
2022-09-23T05:44:05.973Z,100983.09
2022-09-23T05:49:10.167Z,100985.69
2022-09-23T05:54:14.915Z,100990.88
2022-09-23T05:59:17.930Z,100986.50
2022-09-23T06:04:20.855Z,100988.19
2022-09-23T06:09:25.245Z,100996.78
2022-09-23T06:14:28.819Z,100987.25
2022-09-23T06:19:31.873Z,100990.75
2022-09-23T06:24:36.259Z,100986.38
2022-09-23T06:29:39.254Z,100989.88
2022-09-23T06:34:51.557Z,100989.00
2022-09-23T06:39:56.488Z,100989.78
2022-09-23T06:45:00.197Z,100986.34
2022-09-23T06:50:03.171Z,100979.41
2022-09-23T06:55:09.164Z,100985.53
2022-09-23T07:00:13.550Z,100986.38
2022-09-23T07:05:17.393Z,100991.56
2022-09-23T07:10:21.804Z,101000.19
2022-09-23T07:15:24.755Z,100994.94
2022-09-23T07:20:27.673Z,100993.19
2022-09-23T07:25:34.257Z,100988.78
2022-09-23T07:30:38.753Z,100989.69
2022-09-23T07:35:43.388Z,100984.41
2022-09-23T07:40:47.797Z,100980.84
2022-09-23T07:45:51.622Z,100982.53
2022-09-23T07:50:55.074Z,100977.31
2022-09-23T07:55:59.613Z,100976.38
2022-09-23T08:01:04.669Z,100958.06
2022-09-23T08:06:08.605Z,100965.00
2022-09-23T08:11:14.304Z,100972.63
2022-09-23T08:16:17.417Z,100963.88
2022-09-23T08:21:21.202Z,100957.72
2022-09-23T08:26:25.582Z,100949.88
2022-09-23T08:31:28.613Z,100945.25
2022-09-23T08:36:32.166Z,100947.75
2022-09-23T08:41:40.400Z,100947.56
2022-09-23T08:46:46.525Z,100947.38
2022-09-23T08:51:50.902Z,100946.28
2022-09-23T08:56:57.229Z,100947.06
2022-09-23T09:02:01.550Z,100940.91
2022-09-23T09:07:35.330Z,100934.56
2022-09-23T09:12:42.505Z,100936.31
2022-09-23T09:17:49.800Z,100930.16
2022-09-23T09:22:57.751Z,100917.59
2022-09-23T09:28:02.568Z,100920.13
2022-09-23T09:33:08.086Z,100913.03
2022-09-23T09:38:11.049Z,100917.81
2022-09-23T09:43:23.245Z,100906.13
2022-09-23T09:48:32.470Z,100900.50
2022-09-23T09:53:35.855Z,100893.66
2022-09-23T09:58:44.974Z,100886.38
2022-09-23T10:03:48.201Z,100876.84
2022-09-23T10:09:04.531Z,100881.19
2022-09-23T10:14:13.672Z,100882.91
2022-09-23T10:19:25.205Z,100858.03
2022-09-23T10:24:30.995Z,100865.75
2022-09-23T10:29:39.701Z,100861.59
2022-09-23T10:34:45.053Z,100851.44
2022-09-23T10:40:05.448Z,100849.09
2022-09-23T10:45:41.068Z,100853.25
2022-09-23T10:50:49.041Z,100847.22
2022-09-23T10:56:05.625Z,100843.28
2022-09-23T11:01:15.711Z,100835.69
2022-09-23T11:06:25.115Z,100826.41
2022-09-23T11:11:34.207Z,100841.41
2022-09-23T11:16:45.636Z,100836.38
2022-09-23T11:21:58.356Z,100832.19
2022-09-23T11:27:06.756Z,100825.22
2022-09-23T11:32:23.575Z,100820.25
2022-09-23T11:37:28.907Z,100828.91
2022-09-23T11:42:35.228Z,100812.41
2022-09-23T11:47:44.056Z,100799.91
2022-09-23T11:52:51.109Z,100810.13
2022-09-23T11:57:55.434Z,100804.25
2022-09-23T12:03:06.608Z,100796.16
2022-09-23T12:08:16.195Z,100790.66
2022-09-23T12:13:21.477Z,100796.06
2022-09-23T12:18:36.022Z,100784.69
2022-09-23T12:23:46.803Z,100783.38
2022-09-23T12:28:50.898Z,100784.47
2022-09-23T12:33:55.523Z,100784.31
2022-09-23T12:39:03.267Z,100776.97
2022-09-23T12:44:16.844Z,100757.59
2022-09-23T12:49:26.232Z,100762.28
2022-09-23T12:54:30.105Z,100761.53
2022-09-23T12:59:34.635Z,100757.44
2022-09-23T13:05:05.420Z,100753.22
2022-09-23T13:10:12.275Z,100760.47
2022-09-23T13:15:22.694Z,100757.66
2022-09-23T13:20:38.494Z,100745.03
2022-09-23T13:25:43.294Z,100754.56
2022-09-23T13:30:49.777Z,100739.97
2022-09-23T13:35:56.836Z,100745.88
2022-09-23T13:41:01.195Z,100736.75
2022-09-23T13:46:05.334Z,100738.53
2022-09-23T13:51:11.264Z,100733.09
2022-09-23T13:56:15.050Z,100730.63
2022-09-23T14:01:23.785Z,100722.97
2022-09-23T14:06:30.449Z,100720.22
2022-09-23T14:11:35.501Z,100730.94
2022-09-23T14:16:40.307Z,100727.19
2022-09-23T14:21:44.815Z,100717.41
2022-09-23T14:26:49.074Z,100713.22
2022-09-23T14:31:57.251Z,100714.69
2022-09-23T14:37:27.323Z,100715.13
2022-09-23T14:42:38.523Z,100714.47
2022-09-23T14:47:46.257Z,100704.16
2022-09-23T14:52:53.646Z,100705.41
2022-09-23T14:58:02.597Z,100697.97
2022-09-23T15:03:12.790Z,100699.97
2022-09-23T15:08:18.833Z,100698.19
2022-09-23T15:13:23.327Z,100700.19
2022-09-23T15:18:28.892Z,100704.66
2022-09-23T15:23:34.665Z,100694.25
2022-09-23T15:28:37.710Z,100690.63
2022-09-23T15:33:40.786Z,100685.50
2022-09-23T15:38:45.901Z,100686.66
2022-09-23T15:43:48.961Z,100692.38
2022-09-23T15:48:58.682Z,100696.41
2022-09-23T15:54:03.957Z,100694.81
2022-09-23T15:59:07.126Z,100702.16
2022-09-23T16:04:11.253Z,100705.69
2022-09-23T16:09:15.865Z,100701.44
2022-09-23T16:14:19.725Z,100697.16
2022-09-23T16:19:22.683Z,100700.81
2022-09-23T16:24:28.448Z,100702.94
2022-09-23T16:29:31.538Z,100707.50
2022-09-23T16:34:34.947Z,100712.16
2022-09-23T16:39:39.319Z,100718.38
2022-09-23T16:44:42.649Z,100720.34
2022-09-23T16:49:45.682Z,100702.34
2022-09-23T16:54:50.649Z,100707.81
2022-09-23T17:00:10.839Z,100708.91
2022-09-23T17:05:17.184Z,100702.22
2022-09-23T17:10:21.631Z,100706.00
2022-09-23T17:15:24.605Z,100709.72
2022-09-23T17:20:27.568Z,100707.28
2022-09-23T17:25:32.299Z,100709.31
2022-09-23T17:30:35.286Z,100703.31
2022-09-23T17:35:40.987Z,100712.78
2022-09-23T17:40:51.597Z,100714.41
2022-09-23T17:45:55.530Z,100722.25
2022-09-23T17:50:59.197Z,100715.25
2022-09-23T17:56:05.403Z,100716.72
2022-09-23T18:01:10.124Z,100718.50
2022-09-23T18:06:14.033Z,100716.63
2022-09-23T18:11:19.937Z,100719.19
2022-09-23T18:16:24.781Z,100722.59
2022-09-23T18:21:29.466Z,100728.59
2022-09-23T18:26:34.505Z,100735.59
2022-09-23T18:31:38.400Z,100732.97
2022-09-23T18:36:41.455Z,100733.84
2022-09-23T18:41:46.255Z,100737.34
2022-09-23T18:46:49.668Z,100732.25
2022-09-23T18:51:54.623Z,100734.91
2022-09-23T18:57:01.287Z,100734.97
2022-09-23T19:02:04.581Z,100732.38
2022-09-23T19:07:08.230Z,100740.34
2022-09-23T19:12:13.215Z,100729.91
2022-09-23T19:17:16.351Z,100733.28
2022-09-23T19:22:22.435Z,100732.41
2022-09-23T19:27:26.707Z,100738.56
2022-09-23T19:32:30.117Z,100739.72
2022-09-23T19:37:33.516Z,100747.72
2022-09-23T19:42:38.250Z,100750.97
2022-09-23T19:47:41.432Z,100746.56
2022-09-23T19:52:44.609Z,100749.09
2022-09-23T19:57:49.352Z,100743.06
2022-09-23T20:02:52.713Z,100737.97
2022-09-23T20:07:55.995Z,100740.69
2022-09-23T20:13:00.602Z,100735.56
2022-09-23T20:18:03.671Z,100740.94
2022-09-23T20:23:06.762Z,100735.28
2022-09-23T20:28:11.139Z,100732.88
2022-09-23T20:33:15.223Z,100728.59
2022-09-23T20:38:18.210Z,100718.88
2022-09-23T20:43:22.638Z,100725.06
2022-09-23T20:48:25.647Z,100727.69
2022-09-23T20:53:28.651Z,100727.72
2022-09-23T20:58:36.576Z,100732.28
2022-09-23T21:03:40.381Z,100728.03
2022-09-23T21:08:44.491Z,100716.84
2022-09-23T21:13:49.782Z,100721.31
2022-09-23T21:18:52.903Z,100721.50
2022-09-23T21:24:07.080Z,100723.38
2022-09-23T21:29:20.082Z,100725.22
2022-09-23T21:34:26.066Z,100720.88
2022-09-23T21:39:29.012Z,100722.88
2022-09-23T21:44:33.373Z,100724.63
2022-09-23T21:49:36.819Z,100724.59
2022-09-23T21:54:40.082Z,100723.75
2022-09-23T21:59:44.427Z,100726.38
2022-09-23T22:04:47.382Z,100720.25
2022-09-23T22:09:50.417Z,100723.91
2022-09-23T22:14:55.127Z,100730.00
2022-09-23T22:19:58.546Z,100716.16
2022-09-23T22:25:01.580Z,100717.84
2022-09-23T22:30:24.261Z,100715.28
2022-09-23T22:35:27.177Z,100717.97
2022-09-23T22:40:30.202Z,100707.63
2022-09-23T22:45:34.925Z,100712.09
2022-09-23T22:50:39.856Z,100709.56
2022-09-23T22:55:43.191Z,100709.66
2022-09-23T23:00:47.618Z,100704.53
2022-09-23T23:05:50.630Z,100698.53
2022-09-23T23:10:55.000Z,100699.44
2022-09-23T23:16:04.782Z,100699.53
2022-09-23T23:21:08.627Z,100692.66
2022-09-23T23:26:13.079Z,100692.69
2022-09-23T23:31:18.878Z,100684.06
2022-09-23T23:36:22.746Z,100683.50
2022-09-23T23:41:25.973Z,100683.50
2022-09-23T23:46:31.733Z,100689.59
2022-09-23T23:51:34.773Z,100684.28
2022-09-23T23:56:37.862Z,100688.63
